Time;durP1;ratioP1;P1;durP2;ratioP2;P2;SDS_P1;SDS_P2;PMS_P1;PMS_P2;Temp;Humidity;BMP_temperature;BMP_pressure;BME280_temperature;BME280_humidity;BME280_pressure;Samples;Min_cycle;Max_cycle;Signal;HPM_P1;HPM_P2
2021/03/18 00:01:19;;;;;;;13.03;6.53;;;;;;;5.92;100.00;99553.89;1826650;78;20944;-56
2021/03/18 00:03:49;;;;;;;9.48;6.20;;;;;;;5.97;100.00;99560.39;1831515;78;21110;-56
2021/03/18 00:06:16;;;;;;;12.73;6.30;;;;;;;5.99;100.00;99564.72;1835540;78;21186;-59
2021/03/18 00:08:45;;;;;;;13.22;6.60;;;;;;;6.01;100.00;99570.88;1835482;78;20920;-56
2021/03/18 00:11:18;;;;;;;8.48;5.67;;;;;;;6.02;100.00;99560.64;1835612;78;21495;-56
2021/03/18 00:13:45;;;;;;;9.83;6.20;;;;;;;6.04;100.00;99568.59;1835508;78;21126;-57
2021/03/18 00:16:14;;;;;;;12.28;6.55;;;;;;;6.04;100.00;99569.03;1835584;78;21103;-57
2021/03/18 00:18:48;;;;;;;11.55;6.80;;;;;;;6.02;100.00;99567.78;1835535;78;21330;-56
2021/03/18 00:21:17;;;;;;;15.48;6.80;;;;;;;5.97;100.00;99555.92;1835820;78;21125;-56
2021/03/18 00:23:45;;;;;;;14.28;6.72;;;;;;;5.97;100.00;99555.92;1835503;78;21493;-56
2021/03/18 00:26:13;;;;;;;11.90;7.10;;;;;;;6.03;100.00;99560.20;1835579;78;21062;-56
2021/03/18 00:28:41;;;;;;;9.30;6.50;;;;;;;6.04;100.00;99569.92;1835553;78;21022;-56
2021/03/18 00:31:09;;;;;;;10.20;6.30;;;;;;;6.04;100.00;99570.36;1835556;78;21531;-56
2021/03/18 00:33:36;;;;;;;17.73;6.05;;;;;;;6.01;100.00;99567.37;1835484;78;21133;-56
2021/03/18 00:36:05;;;;;;;10.65;5.78;;;;;;;6.01;100.00;99567.37;1835572;78;21046;-56
2021/03/18 00:38:32;;;;;;;9.38;5.80;;;;;;;6.02;100.00;99573.09;1835518;78;21066;-56
2021/03/18 00:41:04;;;;;;;10.18;5.95;;;;;;;6.01;100.00;99572.21;1835673;78;21459;-56
2021/03/18 00:43:32;;;;;;;10.80;6.20;;;;;;;6.04;100.00;99571.25;1835750;77;21240;-56
2021/03/18 00:46:00;;;;;;;11.30;7.05;;;;;;;6.07;100.00;99574.24;1857460;77;21099;-56
2021/03/18 00:48:29;;;;;;;10.93;6.75;;;;;;;6.07;100.00;99574.24;1857539;77;21131;-56
2021/03/18 00:51:01;;;;;;;10.55;7.05;;;;;;;6.07;100.00;99576.91;1857567;77;21591;-56
2021/03/18 00:53:34;;;;;;;18.82;6.47;;;;;;;6.06;100.00;99585.81;1857710;77;21091;-56
2021/03/18 00:56:08;;;;;;;11.70;7.10;;;;;;;6.04;100.00;99577.02;1857796;77;21479;-56
2021/03/18 00:58:36;;;;;;;10.30;6.28;;;;;;;6.02;100.00;99580.60;1857539;77;21111;-57
2021/03/18 01:01:05;;;;;;;18.37;7.15;;;;;;;6.01;100.00;99582.86;1857699;77;21064;-57
2021/03/18 01:03:40;;;;;;;10.03;6.78;;;;;;;6.01;100.00;99576.20;1858147;77;21163;-56
2021/03/18 01:06:16;;;;;;;15.85;7.50;;;;;;;6.03;100.00;99576.16;1863058;77;21076;-56
2021/03/18 01:08:45;;;;;;;12.68;7.37;;;;;;;6.05;100.00;99578.75;1831932;77;21176;-57
2021/03/18 01:11:19;;;;;;;14.50;7.05;;;;;;;6.05;100.00;99576.09;1863082;77;20913;-57
2021/03/18 01:13:59;;;;;;;14.43;7.35;;;;;;;6.05;100.00;99574.77;1863039;77;21115;-57
2021/03/18 01:16:32;;;;;;;13.68;7.50;;;;;;;6.05;100.00;99576.09;1863108;77;21528;-56
2021/03/18 01:19:06;;;;;;;13.58;8.93;;;;;;;6.04;100.00;99566.37;1863048;77;21054;-57
2021/03/18 01:21:39;;;;;;;14.33;10.20;;;;;;;6.06;100.00;99568.07;1863118;77;22279;-56
2021/03/18 01:24:10;;;;;;;16.85;10.38;;;;;;;6.06;100.00;99570.73;1863016;77;21142;-56
2021/03/18 01:26:39;;;;;;;17.37;10.55;;;;;;;6.02;100.00;99578.42;1863021;77;21131;-56
2021/03/18 01:29:07;;;;;;;15.50;9.55;;;;;;;6.02;100.00;99578.42;1863043;77;20957;-56
2021/03/18 01:31:35;;;;;;;22.77;10.32;;;;;;;6.03;100.00;99581.48;1863050;77;21114;-57
2021/03/18 01:34:03;;;;;;;20.35;11.10;;;;;;;6.05;100.00;99578.75;1863111;77;21299;-56
2021/03/18 01:36:33;;;;;;;19.10;11.68;;;;;;;6.05;100.00;99583.63;1862902;77;20933;-57
2021/03/18 01:39:01;;;;;;;19.48;11.22;;;;;;;6.00;100.00;99587.73;1863049;77;21035;-57
2021/03/18 01:41:28;;;;;;;18.57;11.00;;;;;;;6.00;100.00;99587.73;1863036;77;21130;-56
2021/03/18 01:43:57;;;;;;;17.32;10.40;;;;;;;5.97;100.00;99586.52;1856747;77;21142;-56
2021/03/18 01:46:24;;;;;;;19.10;11.15;;;;;;;5.97;100.00;99585.19;1827564;78;21190;-56
2021/03/18 01:48:53;;;;;;;18.95;11.15;;;;;;;5.95;100.00;99592.36;1827408;77;21065;-56
2021/03/18 01:51:21;;;;;;;17.35;11.38;;;;;;;5.96;100.00;99595.42;1827548;78;21567;-56
2021/03/18 01:53:49;;;;;;;20.97;11.83;;;;;;;5.96;100.00;99599.41;1827506;78;21169;-56
2021/03/18 01:56:16;;;;;;;21.05;12.80;;;;;;;5.96;100.00;99599.41;1827614;78;21166;-56
2021/03/18 01:58:45;;;;;;;22.98;13.00;;;;;;;5.95;100.00;99592.80;1827511;78;21526;-56
2021/03/18 02:01:16;;;;;;;26.33;14.15;;;;;;;5.96;100.00;99594.09;1827550;78;20964;-56
2021/03/18 02:03:43;;;;;;;20.20;13.70;;;;;;;5.97;100.00;99598.49;1827507;78;21456;-56
2021/03/18 02:06:13;;;;;;;24.35;15.30;;;;;;;5.96;100.00;99599.41;1830379;78;21035;-56
2021/03/18 02:08:41;;;;;;;20.97;13.68;;;;;;;5.92;100.00;99600.45;1830444;78;21058;-57
2021/03/18 02:11:09;;;;;;;26.37;14.98;;;;;;;5.93;100.00;99602.19;1830348;78;21694;-56
2021/03/18 02:13:37;;;;;;;21.37;14.43;;;;;;;5.91;100.00;99602.70;1830341;78;21004;-56
2021/03/18 02:16:12;;;;;;;20.25;13.45;;;;;;;5.88;100.00;99601.48;1830315;77;21134;-56
2021/03/18 02:18:50;;;;;;;;;;;;;;;5.89;100.00;99611.20;1833311;78;21187;-56
2021/03/18 02:21:38;;;;;;;23.22;14.90;;;;;;;5.89;100.00;99616.52;1830426;78;20233;-57
2021/03/18 02:24:41;;;;;;;20.72;12.90;;;;;;;5.87;100.00;99615.70;1788290;77;21767;-56
2021/03/18 02:27:57;;;;;;;21.35;13.95;;;;;;;5.85;100.00;99619.73;1830333;78;21142;-56
2021/03/18 02:30:30;;;;;;;25.00;15.15;;;;;;;5.82;100.00;99620.28;1830489;78;25328;-57
2021/03/18 02:33:32;;;;;;;;;;;;;;;5.80;100.00;99623.46;1832290;77;21110;-57
2021/03/18 02:36:11;;;;;;;24.65;14.95;;;;;;;5.79;100.00;99620.39;1830541;78;20238;-56
2021/03/18 02:38:56;;;;;;;24.90;15.70;;;;;;;5.78;100.00;99623.97;1824097;78;21387;-57
2021/03/18 02:41:29;;;;;;;22.35;14.45;;;;;;;5.78;100.00;99623.97;1830185;77;21085;-57
2021/03/18 02:44:05;;;;;;;27.90;17.23;;;;;;;5.81;100.00;99623.87;1829924;77;21102;-57
2021/03/18 02:46:34;;;;;;;29.72;18.23;;;;;;;5.82;100.00;99629.15;1830205;77;21035;-57
2021/03/18 02:49:03;;;;;;;29.18;16.48;;;;;;;5.84;100.00;99626.42;1830075;78;21073;-57
2021/03/18 02:51:33;;;;;;;23.40;12.53;;;;;;;5.80;100.00;99635.43;1830145;78;22241;-57
2021/03/18 02:54:05;;;;;;;26.45;13.60;;;;;;;5.80;100.00;99635.43;1830152;77;21491;-57
2021/03/18 02:56:33;;;;;;;25.62;13.88;;;;;;;5.73;100.00;99632.98;1830142;78;21082;-57
2021/03/18 02:59:02;;;;;;;28.35;13.38;;;;;;;5.69;100.00;99630.02;1830094;78;21050;-55
2021/03/18 03:01:30;;;;;;;31.93;13.20;;;;;;;5.69;100.00;99630.02;1829974;78;21042;-56
2021/03/18 03:03:58;;;;;;;31.95;14.33;;;;;;;5.69;100.00;99640.66;1830007;78;21345;-55
2021/03/18 03:06:27;;;;;;;33.73;14.43;;;;;;;5.66;100.00;99635.44;1806717;78;21125;-56
2021/03/18 03:08:55;;;;;;;29.75;14.07;;;;;;;5.66;100.00;99639.43;1807267;78;21601;-56
2021/03/18 03:11:23;;;;;;;29.02;13.95;;;;;;;5.65;100.00;99636.81;1829392;78;20971;-56
2021/03/18 03:13:51;;;;;;;26.85;13.88;;;;;;;5.63;100.00;99638.65;1829522;78;21051;-56
2021/03/18 03:16:21;;;;;;;28.67;14.47;;;;;;;5.61;100.00;99645.33;1829480;78;21196;-56
2021/03/18 03:18:50;;;;;;;36.58;18.17;;;;;;;5.61;100.00;99642.67;1829516;78;21538;-56
2021/03/18 03:21:18;;;;;;;34.85;18.00;;;;;;;5.60;100.00;99647.58;1781125;78;21098;-56
2021/03/18 03:23:46;;;;;;;36.28;17.82;;;;;;;5.56;100.00;99653.92;1829471;78;21204;-56
2021/03/18 03:26:17;;;;;;;37.55;17.07;;;;;;;5.43;100.00;99649.02;1829551;78;21185;-56
2021/03/18 03:28:46;;;;;;;32.78;16.52;;;;;;;5.37;100.00;99658.48;1829454;78;21185;-56
2021/03/18 03:31:16;;;;;;;29.25;15.13;;;;;;;5.37;100.00;99658.48;1806755;78;21039;-56
2021/03/18 03:33:45;;;;;;;36.03;17.65;;;;;;;5.35;100.00;99655.48;1826656;78;21150;-56
2021/03/18 03:36:15;;;;;;;37.88;18.57;;;;;;;5.27;100.00;99658.37;1829479;78;21035;-56
2021/03/18 03:38:42;;;;;;;38.33;18.20;;;;;;;5.27;100.00;99658.37;1829404;78;21027;-56
2021/03/18 03:41:10;;;;;;;37.50;17.20;;;;;;;5.22;100.00;99657.65;1829494;78;21575;-56
2021/03/18 03:43:38;;;;;;;44.90;21.97;;;;;;;5.21;100.00;99657.23;1830757;77;20998;-56
2021/03/18 03:46:06;;;;;;;38.15;18.40;;;;;;;5.23;100.00;99666.03;1859633;77;21048;-56
2021/03/18 03:48:34;;;;;;;43.48;19.10;;;;;;;5.21;100.00;99679.83;1859593;77;21036;-56
2021/03/18 03:51:03;;;;;;;45.23;20.00;;;;;;;5.16;100.00;99664.87;1859643;77;21027;-56
2021/03/18 03:53:52;;;;;;;44.00;19.15;;;;;;;5.12;100.00;99674.33;1859811;77;21329;-56
2021/03/18 03:56:26;;;;;;;48.00;20.00;;;;;;;5.06;100.00;99691.31;1859595;77;21442;-56
2021/03/18 03:59:05;;;;;;;46.33;20.88;;;;;;;5.00;100.00;99662.28;1859633;77;21040;-56
2021/03/18 04:01:38;;;;;;;43.42;18.85;;;;;;;4.96;100.00;99678.75;1859583;77;20929;-57
2021/03/18 04:04:16;;;;;;;39.33;19.42;;;;;;;4.94;100.00;99674.39;1823847;77;21554;-56
2021/03/18 04:06:44;;;;;;;46.15;19.95;;;;;;;4.92;100.00;99672.23;1840222;77;22251;-56
2021/03/18 04:09:14;;;;;;;46.00;19.12;;;;;;;4.90;100.00;99667.43;1859540;77;21051;-56
2021/03/18 04:11:43;;;;;;;47.10;19.67;;;;;;;4.86;100.00;99677.26;1859836;77;21036;-56
2021/03/18 04:14:12;;;;;;;48.48;19.57;;;;;;;4.82;100.00;99681.81;1859553;77;21114;-56
2021/03/18 04:16:42;;;;;;;50.25;20.52;;;;;;;4.78;100.00;99681.48;1859669;77;21100;-57
2021/03/18 04:19:17;;;;;;;43.68;18.45;;;;;;;4.73;100.00;99682.94;1859687;77;22229;-56
2021/03/18 04:21:47;;;;;;;46.25;19.95;;;;;;;4.72;100.00;99677.22;1859837;77;21479;-56
2021/03/18 04:24:15;;;;;;;51.33;20.43;;;;;;;4.70;100.00;99679.48;1859774;77;21501;-57
2021/03/18 04:26:43;;;;;;;51.85;20.57;;;;;;;4.69;100.00;99684.38;1859817;77;21071;-56
2021/03/18 04:29:10;;;;;;;51.23;20.08;;;;;;;4.64;100.00;99690.28;1859804;77;21036;-57
2021/03/18 04:31:39;;;;;;;49.80;19.50;;;;;;;4.58;100.00;99701.49;1859826;77;21753;-56
2021/03/18 04:34:08;;;;;;;44.20;19.35;;;;;;;4.55;100.00;99694.95;1859812;77;21138;-56
2021/03/18 04:36:36;;;;;;;45.83;19.00;;;;;;;4.53;100.00;99695.45;1826832;77;21024;-56
2021/03/18 04:39:05;;;;;;;48.90;20.17;;;;;;;4.52;100.00;99692.82;1859798;77;21111;-56
2021/03/18 04:41:33;;;;;;;44.15;19.77;;;;;;;4.53;100.00;99699.43;1859723;77;21100;-56
2021/03/18 04:44:01;;;;;;;50.95;20.95;;;;;;;4.53;100.00;99693.23;1852639;77;21188;-56
2021/03/18 04:46:29;;;;;;;52.05;19.85;;;;;;;4.53;100.00;99702.08;1824189;78;21134;-56
2021/03/18 04:48:59;;;;;;;58.42;21.23;;;;;;;4.52;100.00;99708.27;1824396;78;21558;-56
2021/03/18 04:51:27;;;;;;;47.67;20.40;;;;;;;4.51;100.00;99713.17;1824279;78;21108;-56
2021/03/18 04:53:55;;;;;;;62.08;24.30;;;;;;;4.51;100.00;99711.84;1824378;77;21047;-57
2021/03/18 04:56:23;;;;;;;49.00;19.30;;;;;;;4.52;100.00;99706.95;1803968;78;21206;-57
2021/03/18 04:58:51;;;;;;;49.18;19.92;;;;;;;4.53;100.00;99721.99;1824271;78;21067;-57
2021/03/18 05:01:20;;;;;;;60.67;21.10;;;;;;;4.53;100.00;99721.99;1824331;78;21098;-56
2021/03/18 05:03:47;;;;;;;47.80;19.50;;;;;;;4.55;100.00;99724.14;1753218;78;21190;-56
2021/03/18 05:06:15;;;;;;;59.60;20.40;;;;;;;4.55;100.00;99716.63;1824316;78;21182;-56
2021/03/18 05:08:43;;;;;;;51.73;20.80;;;;;;;4.55;100.00;99732.55;1824318;78;21689;-56
2021/03/18 05:11:12;;;;;;;51.65;20.17;;;;;;;4.53;100.00;99727.74;1824315;78;21074;-56
2021/03/18 05:13:40;;;;;;;52.93;21.60;;;;;;;4.54;100.00;99729.48;1824476;78;22233;-55
2021/03/18 05:16:08;;;;;;;46.35;19.42;;;;;;;4.52;100.00;99742.78;1824430;78;21444;-56
2021/03/18 05:18:37;;;;;;;60.45;21.42;;;;;;;4.53;100.00;99734.37;1804352;78;21154;-57
2021/03/18 05:21:07;;;;;;;48.40;20.32;;;;;;;4.53;100.00;99746.32;1824401;78;21815;-57
2021/03/18 05:23:34;;;;;;;50.92;20.12;;;;;;;4.54;100.00;99750.72;1824324;77;21440;-57
2021/03/18 05:26:02;;;;;;;49.40;20.72;;;;;;;4.50;100.00;99759.68;1824333;78;21039;-57
2021/03/18 05:28:30;;;;;;;51.00;21.42;;;;;;;4.47;100.00;99751.80;1824278;78;20984;-56
2021/03/18 05:30:57;;;;;;;54.13;21.55;;;;;;;4.42;100.00;99765.17;1824336;78;21094;-57
2021/03/18 05:33:26;;;;;;;43.00;18.73;;;;;;;4.37;100.00;99761.30;1824335;78;21704;-57
2021/03/18 05:35:54;;;;;;;53.73;21.52;;;;;;;4.34;100.00;99770.67;1824206;78;21047;-57
2021/03/18 05:38:23;;;;;;;49.90;19.73;;;;;;;4.29;100.00;99766.80;1824378;78;20932;-57
2021/03/18 05:40:57;;;;;;;42.93;18.12;;;;;;;4.28;100.00;99788.08;1824214;78;21158;-57
2021/03/18 05:43:26;;;;;;;42.27;17.20;;;;;;;4.25;100.00;99774.42;1824544;78;21712;-56
2021/03/18 05:45:55;;;;;;;43.25;17.77;;;;;;;4.22;100.00;99781.61;1859362;77;21754;-56
2021/03/18 05:48:23;;;;;;;51.15;21.40;;;;;;;4.18;100.00;99779.91;1859693;77;21104;-56
2021/03/18 05:50:52;;;;;;;48.52;22.55;;;;;;;4.18;100.00;99803.35;1859735;77;21055;-57
2021/03/18 05:53:20;;;;;;;49.30;21.97;;;;;;;4.18;100.00;99789.20;1859653;77;21112;-57
2021/03/18 05:55:52;;;;;;;72.30;33.08;;;;;;;4.16;100.00;99810.48;1859791;77;21095;-57
2021/03/18 05:58:23;;;;;;;49.80;21.82;;;;;;;4.11;100.00;99797.31;1859711;77;21317;-56
2021/03/18 06:00:53;;;;;;;45.33;18.98;;;;;;;4.09;100.00;99809.75;1859716;77;21096;-56
2021/03/18 06:03:20;;;;;;;48.50;22.55;;;;;;;4.08;100.00;99795.17;1859629;77;21092;-56
2021/03/18 06:05:50;;;;;;;45.33;20.65;;;;;;;4.06;100.00;99805.84;1857420;77;21205;-57
2021/03/18 06:08:18;;;;;;;51.73;21.40;;;;;;;4.04;100.00;99820.92;1859706;77;21107;-56
2021/03/18 06:10:46;;;;;;;42.30;20.72;;;;;;;4.06;100.00;99819.55;1859700;77;21518;-57
2021/03/18 06:13:13;;;;;;;49.80;21.73;;;;;;;4.05;100.00;99816.47;1859578;77;21115;-56
2021/03/18 06:15:41;;;;;;;52.10;20.32;;;;;;;4.07;100.00;99806.70;1859742;77;21103;-56
2021/03/18 06:18:11;;;;;;;44.45;20.25;;;;;;;4.10;100.00;99814.61;1859659;77;21145;-57
2021/03/18 06:20:40;;;;;;;44.20;19.05;;;;;;;4.11;100.00;99824.31;1859664;77;21087;-57
2021/03/18 06:23:09;;;;;;;53.95;25.70;;;;;;;4.10;100.00;99835.83;1774477;77;21275;-57
2021/03/18 06:25:37;;;;;;;56.73;25.55;;;;;;;4.06;100.00;99826.17;1859480;77;21174;-57
2021/03/18 06:28:24;;;;;;;44.18;16.95;;;;;;;4.04;100.00;99837.28;1859679;77;21040;-57
2021/03/18 06:31:10;;;;;;;45.35;17.98;;;;;;;4.04;100.00;99837.28;1859651;77;21056;-57
2021/03/18 06:33:48;;;;;;;36.98;16.85;;;;;;;4.01;100.00;99835.11;1859722;77;21107;-56
2021/03/18 06:36:32;;;;;;;34.18;15.38;;;;;;;3.98;100.00;99831.68;1858818;77;21536;-57
2021/03/18 06:39:10;;;;;;;40.38;16.95;;;;;;;3.96;100.00;99839.66;1859559;77;21103;-57
2021/03/18 06:41:48;;;;;;;39.92;15.58;;;;;;;3.95;100.00;99861.78;1859369;77;21115;-57
2021/03/18 06:44:30;;;;;;;50.35;21.77;;;;;;;3.97;100.00;99849.80;1848706;77;21165;-57
2021/03/18 06:47:07;;;;;;;40.40;18.55;;;;;;;3.97;100.00;99853.78;1824265;78;21110;-57
2021/03/18 06:49:36;;;;;;;37.25;14.83;;;;;;;3.99;100.00;99866.58;1824271;78;22271;-57
2021/03/18 06:52:12;;;;;;;39.27;17.07;;;;;;;3.99;100.00;99858.63;1824136;78;21154;-57
2021/03/18 06:54:42;;;;;;;47.13;20.60;;;;;;;3.99;100.00;99859.48;1824192;78;21074;-57
2021/03/18 06:57:11;;;;;;;42.55;16.37;;;;;;;3.99;100.00;99866.11;1824176;78;21142;-57
2021/03/18 06:59:42;;;;;;;39.35;16.00;;;;;;;4.00;100.00;99873.16;1824280;77;21102;-57
2021/03/18 07:02:13;;;;;;;41.18;16.93;;;;;;;4.02;100.00;99854.57;1824297;78;22254;-57
2021/03/18 07:04:47;;;;;;;39.48;16.93;;;;;;;4.03;100.00;99856.75;1824161;78;21200;-57
2021/03/18 07:07:16;;;;;;;36.58;14.78;;;;;;;4.01;100.00;99869.59;1826290;77;21087;-57
2021/03/18 07:09:48;;;;;;;37.10;14.70;;;;;;;4.01;100.00;99863.44;1779715;80;21789;-57
2021/03/18 07:12:35;;;;;;;31.93;14.60;;;;;;;4.02;100.00;99870.48;1765345;80;21466;-57
2021/03/18 07:15:06;;;;;;;28.47;14.75;;;;;;;4.01;100.00;99872.25;1720059;83;21550;-57
2021/03/18 07:17:36;;;;;;;30.10;13.85;;;;;;;4.02;100.00;99881.09;1666084;82;21189;-57
2021/03/18 07:20:18;;;;;;;31.60;13.90;;;;;;;4.01;100.00;99888.64;1707196;82;21582;-57
2021/03/18 07:22:54;;;;;;;34.53;14.63;;;;;;;3.99;100.00;99891.78;1705812;82;21095;-57
2021/03/18 07:25:27;;;;;;;32.48;15.58;;;;;;;3.99;100.00;99889.13;1707387;82;21204;-57
2021/03/18 07:28:00;;;;;;;27.98;12.23;;;;;;;3.98;100.00;99888.23;1699034;83;21393;-57
2021/03/18 07:30:36;;;;;;;25.52;11.60;;;;;;;3.99;100.00;99889.98;1721450;82;21582;-57
2021/03/18 07:33:11;;;;;;;24.02;10.50;;;;;;;3.98;100.00;99920.06;1690140;82;21627;-57
2021/03/18 07:35:40;;;;;;;27.00;13.30;;;;;;;3.94;100.00;99887.89;1698025;82;21173;-57
2021/03/18 07:38:09;;;;;;;28.12;14.25;;;;;;;3.90;100.00;99906.11;1685997;83;21167;-58
2021/03/18 07:40:36;;;;;;;26.48;11.15;;;;;;;3.89;100.00;99905.69;1711999;83;21198;-57
2021/03/18 07:43:06;;;;;;;24.07;10.98;;;;;;;3.87;100.00;99923.41;1712066;83;21139;-58
2021/03/18 07:45:37;;;;;;;24.32;10.55;;;;;;;3.83;100.00;99925.67;1703853;83;21212;-57
2021/03/18 07:48:12;;;;;;;23.55;10.55;;;;;;;3.79;100.00;99942.13;1619305;85;21641;-57
2021/03/18 07:50:47;;;;;;;20.75;9.58;;;;;;;3.78;100.00;99908.56;1645957;85;21202;-58
2021/03/18 07:53:20;;;;;;;24.45;11.12;;;;;;;3.83;100.00;99920.38;1685585;84;21201;-57
2021/03/18 07:55:52;;;;;;;21.82;10.70;;;;;;;3.82;100.00;99922.61;1681442;84;21133;-57
2021/03/18 07:59:06;;;;;;;21.40;10.05;;;;;;;3.81;100.00;99920.86;1681506;84;21204;-57
2021/03/18 08:01:38;;;;;;;16.80;8.60;;;;;;;3.79;100.00;99910.74;1692003;84;21509;-58
2021/03/18 08:04:12;;;;;;;19.75;8.93;;;;;;;3.75;100.00;99938.23;1662904;83;21245;-58
2021/03/18 08:06:46;;;;;;;22.00;10.82;;;;;;;3.72;100.00;99927.22;1665361;83;21243;-58
2021/03/18 08:09:30;;;;;;;24.43;12.55;;;;;;;3.71;100.00;99929.45;1687266;83;21105;-58
2021/03/18 08:12:00;;;;;;;26.62;12.55;;;;;;;3.68;100.00;99927.75;1699803;82;21151;-57
2021/03/18 08:14:31;;;;;;;29.18;12.23;;;;;;;3.67;100.00;99918.05;1650575;83;21146;-57
2021/03/18 08:17:02;;;;;;;25.02;12.20;;;;;;;3.64;100.00;99920.73;1672297;83;21184;-57
2021/03/18 08:19:40;;;;;;;28.52;13.08;;;;;;;3.62;100.00;99918.57;1649628;83;21514;-57
2021/03/18 08:22:16;;;;;;;21.55;10.30;;;;;;;3.62;100.00;99911.95;1722469;83;21602;-58
2021/03/18 08:24:44;;;;;;;21.87;10.65;;;;;;;3.64;100.00;99911.93;1719182;83;21107;-58
2021/03/18 08:27:12;;;;;;;23.60;12.37;;;;;;;3.66;100.00;99948.13;1722410;83;21155;-57
2021/03/18 08:29:44;;;;;;;24.12;12.20;;;;;;;3.68;100.00;99931.73;1722507;83;21722;-56
2021/03/18 08:32:30;;;;;;;26.15;12.03;;;;;;;3.70;100.00;99931.68;1722366;83;21450;-57
2021/03/18 08:35:00;;;;;;;26.73;13.25;;;;;;;3.72;100.00;99944.45;1722362;83;21156;-57
2021/03/18 08:37:42;;;;;;;25.32;12.60;;;;;;;3.72;100.00;99941.36;1722434;83;21556;-57
2021/03/18 08:40:23;;;;;;;27.55;12.70;;;;;;;3.76;100.00;99943.95;1722483;83;21182;-57
2021/03/18 08:42:53;;;;;;;28.30;10.85;;;;;;;3.80;100.00;99942.55;1722431;83;21171;-58
2021/03/18 08:45:27;;;;;;;28.25;11.63;;;;;;;3.83;100.00;99949.11;1726160;83;21213;-57
2021/03/18 08:47:57;;;;;;;22.52;10.75;;;;;;;3.84;100.00;99961.89;1726996;83;21114;-57
2021/03/18 08:50:32;;;;;;;26.02;11.40;;;;;;;3.83;100.00;99954.84;1730177;83;21081;-58
2021/03/18 08:53:03;;;;;;;31.85;12.53;;;;;;;3.84;100.00;99957.48;1711355;83;21155;-58
2021/03/18 08:55:43;;;;;;;25.30;11.55;;;;;;;3.86;100.00;99950.80;1712446;83;21559;-58
2021/03/18 08:58:14;;;;;;;25.62;12.45;;;;;;;3.88;100.00;99964.94;1675957;85;21464;-58
2021/03/18 09:00:43;;;;;;;39.08;18.52;;;;;;;3.93;100.00;99956.42;1692970;84;21126;-58
2021/03/18 09:03:16;;;;;;;33.88;17.27;;;;;;;3.97;100.00;99967.83;1705726;82;21573;-58
2021/03/18 09:05:50;;;;;;;39.20;18.25;;;;;;;4.00;100.00;99964.66;1703692;84;21149;-58
2021/03/18 09:11:06;;;;;;;24.43;13.75;;;;;;;4.15;100.00;99974.55;1870196;76;27853;-58
2021/03/18 09:13:35;;;;;;;30.25;13.70;;;;;;;4.17;100.00;99987.33;1783306;80;20915;-57
2021/03/18 09:16:04;;;;;;;32.20;13.60;;;;;;;4.21;100.00;99992.13;1751474;79;21388;-57
2021/03/18 09:18:35;;;;;;;24.02;12.88;;;;;;;4.21;100.00;99992.13;1726753;80;20973;-57
2021/03/18 09:21:10;;;;;;;31.27;14.68;;;;;;;4.22;100.00;99999.19;1786422;79;20965;-56
2021/03/18 09:23:45;;;;;;;29.30;13.38;;;;;;;4.23;100.00;99989.84;1696017;82;20988;-57
2021/03/18 09:26:15;;;;;;;26.35;13.78;;;;;;;4.26;100.00;100003.05;1779448;80;22415;-57
2021/03/18 09:28:50;;;;;;;31.65;14.78;;;;;;;4.27;100.00;100011.89;1793409;80;21356;-57
2021/03/18 09:31:24;;;;;;;25.80;13.08;;;;;;;4.25;100.00;100028.30;1794081;80;24217;-57
2021/03/18 09:33:54;;;;;;;24.15;12.85;;;;;;;4.19;100.00;100018.68;1795204;80;20990;-58
2021/03/18 09:36:26;;;;;;;25.90;14.07;;;;;;;4.16;100.00;100037.32;1795898;79;21547;-58
2021/03/18 09:39:12;;;;;;;30.15;13.68;;;;;;;4.13;100.00;100016.16;1795136;80;21078;-57
2021/03/18 09:41:46;;;;;;;31.60;15.80;;;;;;;4.12;100.00;100022.38;1790375;79;21376;-57
2021/03/18 09:44:20;;;;;;;33.83;13.50;;;;;;;4.13;100.00;100028.10;1785698;79;21230;-57
2021/03/18 09:46:51;;;;;;;30.68;14.15;;;;;;;4.15;100.00;100020.51;1792419;79;21167;-57
2021/03/18 09:49:39;;;;;;;29.82;16.02;;;;;;;4.16;100.00;100038.65;1790312;79;21637;-57
2021/03/18 09:52:10;;;;;;;32.45;15.00;;;;;;;4.16;100.00;100020.93;1791156;79;21147;-57
2021/03/18 09:54:39;;;;;;;33.50;15.15;;;;;;;4.16;100.00;100045.28;1788140;79;21262;-58
2021/03/18 09:57:08;;;;;;;25.48;13.58;;;;;;;4.16;100.00;100051.44;1779742;80;21071;-57
2021/03/18 09:59:37;;;;;;;27.58;13.13;;;;;;;4.17;100.00;100039.06;1757258;81;20944;-56
2021/03/18 10:02:05;;;;;;;29.72;13.28;;;;;;;4.19;100.00;100053.61;1779894;80;21520;-57
2021/03/18 10:04:39;;;;;;;27.02;12.45;;;;;;;4.19;100.00;100049.19;1757290;81;21047;-58
2021/03/18 10:07:14;;;;;;;28.83;13.23;;;;;;;4.23;100.00;100056.66;1855008;76;22709;-57
2021/03/18 10:09:46;;;;;;;29.10;13.13;;;;;;;4.18;100.00;100039.48;1808167;78;20918;-57
2021/03/18 10:12:20;;;;;;;29.95;14.35;;;;;;;4.21;100.00;100042.55;1807918;79;22462;-57
2021/03/18 10:14:59;;;;;;;;;;;;;;;4.23;100.00;100048.22;1810010;79;20934;-57
2021/03/18 10:17:31;;;;;;;25.80;11.57;;;;;;;4.27;100.00;100043.27;1807861;79;20161;-58
2021/03/18 10:20:07;;;;;;;27.25;12.63;;;;;;;4.25;100.00;100045.08;1807894;79;21537;-57
2021/03/18 10:22:40;;;;;;;27.85;12.65;;;;;;;4.27;100.00;100034.45;1807960;79;20926;-57
2021/03/18 10:25:23;;;;;;;25.62;13.93;;;;;;;4.28;100.00;100046.34;1806974;79;21366;-57
2021/03/18 10:28:04;;;;;;;26.33;13.00;;;;;;;4.34;100.00;100053.78;1807901;79;21093;-57
2021/03/18 10:30:34;;;;;;;24.45;13.43;;;;;;;4.38;100.00;100052.80;1808004;79;20969;-57
2021/03/18 10:33:21;;;;;;;27.32;15.53;;;;;;;4.40;100.00;100072.23;1807658;79;21088;-58
2021/03/18 10:35:58;;;;;;;43.25;23.07;;;;;;;4.38;99.28;100088.64;1807941;78;21096;-57
2021/03/18 10:38:36;;;;;;;29.27;13.22;;;;;;;4.39;99.87;100059.86;1807645;78;21398;-58
2021/03/18 10:41:09;;;;;;;25.00;12.43;;;;;;;4.43;99.14;100078.36;1766819;80;21065;-58
2021/03/18 10:43:41;;;;;;;23.92;13.22;;;;;;;4.47;98.31;100086.25;1751804;81;21201;-57
2021/03/18 10:46:13;;;;;;;34.18;13.08;;;;;;;4.52;97.70;100058.68;1766654;80;21632;-58
2021/03/18 10:48:40;;;;;;;23.55;12.33;;;;;;;4.61;97.92;100068.70;1784740;80;21105;-58
2021/03/18 10:51:15;;;;;;;22.65;13.10;;;;;;;4.70;97.71;100101.25;1757965;80;21359;-57
2021/03/18 10:53:45;;;;;;;26.37;14.07;;;;;;;4.74;97.71;100079.47;1770428;80;21093;-57
2021/03/18 10:56:17;;;;;;;27.55;14.33;;;;;;;4.77;97.06;100090.05;1768479;80;20940;-57
2021/03/18 10:58:45;;;;;;;27.87;14.23;;;;;;;4.80;96.13;100093.07;1761380;80;21073;-58
2021/03/18 11:01:16;;;;;;;33.92;17.52;;;;;;;4.77;95.42;100083.84;1760705;80;21153;-58
2021/03/18 11:03:45;;;;;;;32.40;17.20;;;;;;;4.74;95.79;100080.80;1747531;82;21696;-57
2021/03/18 11:06:19;;;;;;;22.05;12.33;;;;;;;4.74;95.98;100110.00;1754015;80;21093;-57
2021/03/18 11:08:50;;;;;;;37.63;21.93;;;;;;;4.68;93.58;100102.17;1764291;80;21159;-57
2021/03/18 11:11:31;;;;;;;39.55;21.95;;;;;;;4.65;94.17;100088.53;1764527;80;21576;-57
2021/03/18 11:14:11;;;;;;;43.55;25.48;;;;;;;4.69;94.46;100086.66;1752760;79;21110;-58
2021/03/18 11:16:40;;;;;;;26.27;15.28;;;;;;;4.72;94.29;100094.56;1779720;79;21672;-57
2021/03/18 11:19:11;;;;;;;27.60;15.05;;;;;;;4.71;94.09;100095.03;1761280;81;21153;-57
2021/03/18 11:21:43;;;;;;;33.90;18.48;;;;;;;4.72;94.69;100097.22;1782795;79;21179;-57
2021/03/18 11:24:18;;;;;;;22.75;13.60;;;;;;;4.73;94.41;100101.62;1770999;79;21175;-57
2021/03/18 11:27:03;;;;;;;25.12;12.07;;;;;;;4.74;93.18;100103.36;1739285;81;21397;-58
2021/03/18 11:29:59;;;;;;;23.60;11.20;;;;;;;4.76;93.29;100109.55;1772417;79;21372;-57
2021/03/18 11:32:39;;;;;;;23.77;11.20;;;;;;;4.75;93.11;100122.37;1741370;81;21185;-57
2021/03/18 11:35:11;;;;;;;24.65;13.35;;;;;;;4.74;92.74;100106.02;1794623;79;21120;-57
2021/03/18 11:37:43;;;;;;;23.62;11.10;;;;;;;4.70;91.95;100130.46;1728483;81;21126;-57
2021/03/18 11:40:16;;;;;;;20.57;10.53;;;;;;;4.68;92.46;100115.02;1789277;79;21072;-57
2021/03/18 11:42:44;;;;;;;22.70;11.48;;;;;;;4.68;92.28;100122.09;1787140;79;21184;-57
2021/03/18 11:45:16;;;;;;;24.77;12.78;;;;;;;4.68;92.17;100114.13;1786498;80;20911;-58